Time;durP1;ratioP1;P1;durP2;ratioP2;P2;SDS_P1;SDS_P2;PMS_P1;PMS_P2;Temp;Humidity;BMP_temperature;BMP_pressure;BME280_temperature;BME280_humidity;BME280_pressure;Samples;Min_cycle;Max_cycle;Signal;HPM_P1;HPM_P2
2023/12/31 00:01:05;;;;;;;2.60;2.20;;;8.90;99.90;;;8.94;89.24;100023.44;4863053;28;25085;-65
2023/12/31 00:03:28;;;;;;;2.63;2.43;;;8.90;99.90;;;8.96;89.10;100016.34;4864335;28;24606;-65
2023/12/31 00:05:49;;;;;;;2.58;2.30;;;8.90;99.90;;;8.92;89.35;100011.47;4851190;28;24451;-65
2023/12/31 00:08:13;;;;;;;2.80;2.50;;;8.80;99.90;;;8.96;89.40;100008.53;4863382;28;24477;-65
2023/12/31 00:10:35;;;;;;;5.05;2.85;;;8.80;99.90;;;8.96;88.69;100000.72;4847954;28;24438;-65
2023/12/31 00:12:57;;;;;;;3.07;2.50;;;8.90;99.90;;;8.93;88.69;100000.94;4857949;28;24485;-65
2023/12/31 00:15:19;;;;;;;2.70;2.50;;;8.80;99.90;;;8.93;88.79;99989.72;4860421;28;24447;-65
2023/12/31 00:17:41;;;;;;;2.80;2.60;;;8.80;99.90;;;8.85;88.90;99982.50;4837316;28;24467;-65
2023/12/31 00:20:04;;;;;;;3.80;2.60;;;8.80;99.90;;;8.82;88.49;99987.06;4854347;28;24510;-65
2023/12/31 00:22:26;;;;;;;3.50;2.58;;;8.80;99.90;;;8.82;89.14;99989.66;4841482;28;24453;-65
2023/12/31 00:24:54;;;;;;;2.50;2.28;;;8.70;99.90;;;8.76;89.30;99982.34;4866478;28;24420;-65
2023/12/31 00:27:15;;;;;;;2.97;2.67;;;8.70;99.90;;;8.68;89.38;99984.69;4852862;28;24436;-65
2023/12/31 00:29:37;;;;;;;2.40;2.30;;;8.60;99.90;;;8.66;89.25;99986.56;4859234;28;24839;-63
2023/12/31 00:31:59;;;;;;;3.00;2.70;;;8.60;99.90;;;8.62;89.58;99982.53;4861713;28;24543;-65
2023/12/31 00:34:21;;;;;;;2.50;2.40;;;8.50;99.90;;;8.58;89.81;99976.75;4867966;28;24547;-65
2023/12/31 00:36:43;;;;;;;3.13;2.75;;;8.50;99.90;;;8.52;90.29;99980.59;4858073;28;24813;-65
2023/12/31 00:39:05;;;;;;;2.75;2.33;;;8.50;99.90;;;8.46;90.27;99972.44;4854193;28;24531;-65
2023/12/31 00:41:27;;;;;;;3.22;2.90;;;8.40;99.90;;;8.51;89.69;99972.94;4871845;28;24458;-65
2023/12/31 00:43:49;;;;;;;3.10;2.50;;;8.40;99.90;;;8.50;89.77;99960.84;4873236;28;24627;-63
2023/12/31 00:46:14;;;;;;;2.90;2.70;;;8.40;99.90;;;8.49;89.73;99954.03;4869200;28;24443;-65
2023/12/31 00:48:36;;;;;;;3.40;2.80;;;8.40;99.90;;;8.41;89.58;99949.38;4859878;28;24428;-63
2023/12/31 00:51:01;;;;;;;3.40;2.50;;;8.40;99.90;;;8.36;90.63;99951.50;4855502;28;24526;-65
2023/12/31 00:53:23;;;;;;;3.40;3.10;;;8.30;99.90;;;8.27;90.16;99949.56;4808297;28;24495;-65
2023/12/31 00:55:45;;;;;;;5.63;3.60;;;8.20;99.90;;;8.23;90.65;99948.09;4870396;28;25007;-65
2023/12/31 00:58:07;;;;;;;5.32;3.70;;;8.20;99.90;;;8.20;90.56;99939.72;4858731;28;24431;-65
2023/12/31 01:00:29;;;;;;;5.60;4.10;;;8.20;99.90;;;8.11;91.35;99932.56;4856909;28;24443;-67
2023/12/31 01:02:51;;;;;;;5.60;4.30;;;8.10;99.90;;;8.16;90.90;99925.25;4865848;28;24462;-64
2023/12/31 01:05:13;;;;;;;4.38;3.60;;;8.10;99.90;;;8.07;91.15;99920.75;4850116;28;24435;-68
2023/12/31 01:07:35;;;;;;;7.07;3.40;;;8.00;99.90;;;8.06;90.97;99925.13;4865045;28;24424;-65
2023/12/31 01:09:57;;;;;;;4.72;3.20;;;8.00;99.90;;;8.06;91.10;99917.31;4858353;28;24439;-64
2023/12/31 01:12:19;;;;;;;3.80;3.40;;;8.00;99.90;;;8.07;91.31;99900.78;4841052;28;24432;-65
2023/12/31 01:14:41;;;;;;;3.20;2.53;;;8.00;99.90;;;8.10;91.33;99910.13;4874729;28;24595;-65
2023/12/31 01:17:03;;;;;;;4.40;2.70;;;8.00;99.90;;;8.15;90.98;99895.88;4875110;28;24447;-65
2023/12/31 01:19:25;;;;;;;3.30;2.80;;;8.00;99.90;;;8.16;91.37;99888.88;4858275;28;24983;-65
2023/12/31 01:21:48;;;;;;;3.42;2.60;;;8.10;99.90;;;8.15;91.13;99898.47;4873569;28;24451;-63
2023/12/31 01:24:09;;;;;;;2.92;2.20;;;8.10;99.90;;;8.18;90.95;99899.97;4871727;28;25047;-65
2023/12/31 01:26:31;;;;;;;2.38;2.20;;;8.10;99.90;;;8.26;90.11;99895.91;4856942;28;24451;-65
2023/12/31 01:28:53;;;;;;;3.60;2.38;;;8.20;99.90;;;8.32;89.69;99899.84;4823656;28;24483;-64
2023/12/31 01:31:19;;;;;;;2.65;2.10;;;8.20;99.90;;;8.38;89.07;99887.22;4869087;28;24440;-65
2023/12/31 01:33:41;;;;;;;2.35;2.15;;;8.30;99.90;;;8.37;89.51;99879.53;4849384;28;24444;-65
2023/12/31 01:36:14;;;;;;;3.30;2.30;;;8.30;99.90;;;8.34;88.69;99878.00;4867672;28;24451;-64
2023/12/31 01:38:37;;;;;;;2.40;2.20;;;8.30;99.90;;;8.42;88.64;99885.22;4850466;28;24989;-64
2023/12/31 01:41:01;;;;;;;2.60;2.40;;;8.30;99.90;;;8.41;89.02;99880.97;4867083;28;25068;-64
2023/12/31 01:43:23;;;;;;;2.15;1.95;;;8.30;99.90;;;8.41;89.05;99865.38;4870731;28;25083;-65
2023/12/31 01:45:46;;;;;;;3.00;1.70;;;8.30;99.90;;;8.50;88.03;99846.47;4855809;28;24786;-64
2023/12/31 01:48:08;;;;;;;3.40;2.20;;;8.40;99.90;;;8.67;87.38;99845.22;4875109;28;24965;-64
2023/12/31 01:50:30;;;;;;;2.00;1.90;;;8.60;99.90;;;8.71;87.20;99844.03;4855926;28;24451;-65
2023/12/31 01:52:52;;;;;;;2.22;2.13;;;8.60;99.90;;;8.69;87.02;99845.91;4855620;28;24527;-65
2023/12/31 01:55:15;;;;;;;2.30;2.20;;;8.60;99.90;;;8.59;87.80;99827.56;4857686;28;24474;-66
2023/12/31 01:57:37;;;;;;;2.20;2.00;;;8.50;99.90;;;8.56;87.96;99813.03;4856375;28;24439;-65
2023/12/31 02:00:03;;;;;;;2.40;2.00;;;8.50;99.90;;;8.65;87.58;99815.88;4866920;28;24507;-66
2023/12/31 02:02:26;;;;;;;3.10;2.40;;;8.60;99.90;;;8.68;87.20;99806.06;4852506;28;24548;-66
2023/12/31 02:04:48;;;;;;;2.80;2.28;;;8.60;99.90;;;8.61;87.12;99802.28;4866162;28;24793;-66
2023/12/31 02:07:10;;;;;;;2.00;1.80;;;8.60;99.90;;;8.59;87.40;99807.63;4852453;28;24470;-64
2023/12/31 02:09:32;;;;;;;2.20;2.10;;;8.50;99.90;;;8.57;87.62;99808.66;4856363;28;24912;-64
2023/12/31 02:11:55;;;;;;;2.13;2.03;;;8.50;99.90;;;8.60;87.11;99813.66;4855496;28;24420;-64
2023/12/31 02:14:17;;;;;;;2.63;2.00;;;8.50;99.90;;;8.63;86.81;99790.00;4839307;28;24491;-64
2023/12/31 02:16:39;;;;;;;2.00;1.90;;;8.50;99.90;;;8.63;86.62;99791.75;4851820;28;24525;-65
2023/12/31 02:19:01;;;;;;;2.47;2.20;;;8.60;99.90;;;8.59;86.69;99785.97;4866431;28;24450;-64
2023/12/31 02:21:26;;;;;;;2.37;2.17;;;8.50;99.90;;;8.60;86.33;99770.25;4863938;28;24432;-64
2023/12/31 02:23:48;;;;;;;2.47;2.13;;;8.60;99.90;;;8.52;86.96;99777.81;4841531;28;24463;-65
2023/12/31 02:26:11;;;;;;;2.20;2.00;;;8.50;99.90;;;8.52;86.80;99788.22;4854934;28;24497;-65
2023/12/31 02:28:34;;;;;;;3.10;1.90;;;8.50;99.90;;;8.55;86.62;99787.16;4863826;28;24451;-66
2023/12/31 02:30:56;;;;;;;2.43;2.23;;;8.50;99.90;;;8.49;87.09;99785.03;4866008;28;24439;-65
2023/12/31 02:33:18;;;;;;;2.10;1.90;;;8.40;99.90;;;8.57;86.41;99786.09;4866441;28;24449;-65
2023/12/31 02:35:41;;;;;;;2.60;2.40;;;8.50;99.90;;;8.47;86.68;99779.97;4857333;28;24440;-64
2023/12/31 02:38:03;;;;;;;2.97;2.65;;;8.40;99.90;;;8.46;86.82;99762.69;4855370;28;24455;-65
2023/12/31 02:40:25;;;;;;;4.10;2.43;;;8.40;99.90;;;8.43;87.25;99768.13;4865137;28;24482;-65
2023/12/31 02:42:46;;;;;;;2.47;2.28;;;8.40;99.90;;;8.45;86.71;99744.63;4854708;28;24509;-65
2023/12/31 02:45:09;;;;;;;2.67;2.47;;;8.40;99.90;;;8.46;86.88;99741.06;4868435;28;24439;-65
2023/12/31 02:47:31;;;;;;;2.80;2.60;;;8.40;99.90;;;8.41;86.81;99753.59;4866890;28;24505;-65
2023/12/31 02:49:53;;;;;;;2.40;2.20;;;8.40;99.90;;;8.34;86.72;99745.44;4861779;28;24509;-65
2023/12/31 02:52:15;;;;;;;2.28;2.17;;;8.30;99.90;;;8.30;87.46;99740.59;4865301;28;25070;-65
2023/12/31 02:54:40;;;;;;;2.30;2.20;;;8.20;99.90;;;8.22;87.37;99735.13;4862972;28;24817;-64
2023/12/31 02:57:06;;;;;;;2.70;2.50;;;8.20;99.90;;;8.22;87.97;99729.94;4855338;28;24548;-66
2023/12/31 02:59:28;;;;;;;2.60;2.40;;;8.10;99.90;;;8.15;88.28;99732.19;4856409;28;24432;-65
2023/12/31 03:01:52;;;;;;;2.65;2.45;;;8.10;99.90;;;8.17;87.66;99719.06;4854494;28;24432;-64
2023/12/31 03:04:14;;;;;;;2.80;2.10;;;8.10;99.90;;;8.19;87.66;99728.41;4871964;28;24477;-66
2023/12/31 03:06:40;;;;;;;2.67;2.47;;;8.20;99.90;;;8.21;87.80;99723.91;4856025;28;24553;-66
2023/12/31 03:09:02;;;;;;;2.65;2.30;;;8.20;99.90;;;8.19;87.97;99719.75;4857062;28;24481;-65
2023/12/31 03:11:24;;;;;;;3.40;2.60;;;8.10;99.90;;;8.12;87.85;99721.16;4865451;28;24548;-65
2023/12/31 03:13:46;;;;;;;3.20;2.60;;;8.10;99.90;;;8.11;88.03;99709.97;4862817;28;24531;-66
2023/12/31 03:16:08;;;;;;;4.90;2.80;;;8.10;99.90;;;8.05;88.23;99713.00;4861996;28;24450;-65
2023/12/31 03:18:30;;;;;;;2.95;2.75;;;8.00;99.90;;;8.03;87.77;99703.72;4856645;28;24469;-65
2023/12/31 03:20:52;;;;;;;3.03;2.53;;;8.00;99.90;;;7.95;88.12;99693.88;4856733;28;25003;-65
2023/12/31 03:23:15;;;;;;;3.20;2.30;;;8.00;99.90;;;7.81;89.06;99694.91;4862366;28;24486;-65
2023/12/31 03:25:37;;;;;;;2.70;2.50;;;7.80;99.90;;;7.70;89.92;99689.72;4859914;28;24515;-65
2023/12/31 03:27:59;;;;;;;2.38;2.15;;;7.70;99.90;;;7.58;90.44;99680.22;4862321;28;24447;-65
2023/12/31 03:30:21;;;;;;;2.50;2.30;;;7.60;99.90;;;7.57;89.96;99677.75;4872973;28;24459;-65
2023/12/31 03:32:43;;;;;;;2.75;2.45;;;7.60;99.90;;;7.51;90.83;99673.84;4860132;28;24477;-65
2023/12/31 03:35:05;;;;;;;2.60;2.40;;;7.60;99.90;;;7.51;91.16;99668.66;4852290;28;24813;-64
2023/12/31 03:37:27;;;;;;;2.70;2.40;;;7.50;99.90;;;7.59;90.82;99666.31;4842917;28;24535;-66
2023/12/31 03:39:51;;;;;;;2.17;2.00;;;7.50;99.90;;;7.60;90.08;99662.78;4866040;28;24431;-65
2023/12/31 03:42:13;;;;;;;3.15;2.72;;;7.60;99.90;;;7.51;90.47;99647.91;4868823;28;20779;-63
2023/12/31 03:44:35;;;;;;;3.42;2.88;;;7.60;99.90;;;7.47;91.17;99648.25;4873457;28;24455;-64
2023/12/31 03:46:57;;;;;;;1.98;1.85;;;7.50;99.90;;;7.47;89.95;99649.06;4858958;28;25031;-65
2023/12/31 03:49:19;;;;;;;3.00;2.30;;;7.50;99.90;;;7.46;90.67;99651.78;4856778;28;24526;-64
2023/12/31 03:51:41;;;;;;;2.10;1.90;;;7.50;99.90;;;7.46;91.09;99654.34;4860481;28;24997;-65
2023/12/31 03:54:05;;;;;;;2.53;2.10;;;7.50;99.90;;;7.42;90.92;99651.19;4862043;28;25039;-65
2023/12/31 03:56:27;;;;;;;1.85;1.75;;;7.40;99.90;;;7.41;91.05;99641.72;4870372;28;24801;-65
2023/12/31 03:58:53;;;;;;;1.40;1.30;;;7.40;99.90;;;7.40;90.07;99640.09;4856402;28;24521;-65
2023/12/31 04:01:15;;;;;;;2.30;2.05;;;7.40;99.90;;;7.35;90.50;99637.00;4854698;28;24435;-65
2023/12/31 04:03:39;;;;;;;2.50;2.30;;;7.40;99.90;;;7.36;91.18;99633.47;4854443;28;24456;-64
2023/12/31 04:06:01;;;;;;;2.90;2.10;;;7.40;99.90;;;7.40;90.54;99634.91;4869082;28;24447;-65
2023/12/31 04:08:24;;;;;;;2.97;2.70;;;7.40;99.90;;;7.43;90.07;99636.44;4866936;28;24808;-64
2023/12/31 04:10:46;;;;;;;3.20;2.80;;;7.40;99.90;;;7.35;91.36;99637.00;4853308;28;24933;-65
2023/12/31 04:13:08;;;;;;;3.30;3.00;;;7.30;99.90;;;7.44;90.58;99641.50;4837025;28;24454;-65
2023/12/31 04:15:30;;;;;;;3.53;2.72;;;7.40;99.90;;;7.42;90.89;99627.81;4865150;28;24530;-65
2023/12/31 04:17:52;;;;;;;5.10;3.03;;;7.40;99.90;;;7.42;90.82;99632.19;4873311;28;25057;-65
2023/12/31 04:20:14;;;;;;;3.25;2.75;;;7.40;99.90;;;7.42;91.04;99632.19;4856764;28;24935;-64
2023/12/31 04:22:37;;;;;;;3.08;2.17;;;7.40;99.90;;;7.36;90.31;99625.69;4859363;28;25055;-65
2023/12/31 04:24:59;;;;;;;2.83;2.50;;;7.40;99.90;;;7.34;91.14;99619.78;4844745;28;24424;-65
2023/12/31 04:27:21;;;;;;;4.53;2.88;;;7.30;99.90;;;7.34;90.89;99616.34;4835860;28;24478;-63
2023/12/31 04:29:43;;;;;;;3.00;2.60;;;7.30;99.90;;;7.29;90.84;99606.31;4858848;28;24509;-65
2023/12/31 04:32:05;;;;;;;3.00;2.50;;;7.30;99.90;;;7.21;91.00;99602.63;4872592;28;24534;-64
2023/12/31 04:34:27;;;;;;;3.30;3.00;;;7.30;99.90;;;7.19;90.95;99605.34;4875440;28;24469;-65
2023/12/31 04:36:49;;;;;;;4.35;3.40;;;7.20;99.90;;;7.12;92.35;99591.19;4870006;28;24502;-65
2023/12/31 04:39:11;;;;;;;4.03;2.97;;;7.20;99.90;;;7.08;92.25;99589.75;4865869;28;24810;-65
2023/12/31 04:41:33;;;;;;;6.03;3.38;;;7.10;99.90;;;7.01;91.97;99589.38;4850813;28;24785;-65
2023/12/31 04:43:55;;;;;;;3.03;2.78;;;7.10;99.90;;;7.05;92.34;99588.22;4863675;28;24539;-66
2023/12/31 04:46:19;;;;;;;3.45;3.10;;;7.10;99.90;;;7.00;92.35;99586.91;4874435;28;24481;-66
2023/12/31 04:48:41;;;;;;;6.00;3.50;;;7.00;99.90;;;6.95;92.61;99583.81;4872009;28;25084;-63
2023/12/31 04:51:03;;;;;;;3.83;3.13;;;7.00;99.90;;;6.90;92.78;99578.97;4861956;28;24434;-65
2023/12/31 04:53:25;;;;;;;3.53;2.50;;;6.90;99.90;;;6.83;93.23;99569.16;4861672;28;24443;-66
2023/12/31 04:55:47;;;;;;;4.03;3.50;;;6.90;99.90;;;6.90;93.29;99560.81;4856992;28;24925;-65
2023/12/31 04:58:09;;;;;;;4.47;3.10;;;6.90;99.90;;;6.88;92.66;99562.69;4876155;28;24454;-65
2023/12/31 05:00:31;;;;;;;3.60;3.30;;;6.90;99.90;;;6.90;92.94;99552.19;4856442;28;24574;-65
2023/12/31 05:02:53;;;;;;;3.72;3.30;;;6.90;99.90;;;6.87;93.79;99555.03;4876969;28;24551;-65
2023/12/31 05:05:15;;;;;;;5.50;3.63;;;6.90;99.90;;;6.89;93.49;99551.41;4874526;28;24529;-64
2023/12/31 05:07:37;;;;;;;3.57;3.13;;;6.90;99.90;;;6.92;92.58;99555.53;4875465;28;24443;-65
2023/12/31 05:10:00;;;;;;;3.30;3.00;;;6.90;99.90;;;6.99;92.17;99551.53;4861767;28;24460;-65
2023/12/31 05:12:23;;;;;;;4.03;3.23;;;6.90;99.90;;;7.01;92.91;99544.47;4855234;28;24478;-64
2023/12/31 05:14:45;;;;;;;5.85;3.47;;;7.00;99.90;;;7.04;91.82;99544.25;4863851;28;24475;-65
2023/12/31 05:17:07;;;;;;;4.10;3.70;;;7.00;99.90;;;7.12;91.60;99541.06;4860573;28;24974;-65
2023/12/31 05:19:29;;;;;;;3.92;3.38;;;7.00;99.90;;;7.16;91.32;99532.94;4858908;28;24511;-65
2023/12/31 05:21:51;;;;;;;3.80;3.50;;;7.10;99.90;;;7.19;91.45;99521.50;4869264;28;24428;-65
2023/12/31 05:24:13;;;;;;;3.80;3.47;;;7.10;99.90;;;7.27;91.10;99514.81;4866054;28;25084;-63
2023/12/31 05:26:35;;;;;;;4.80;3.35;;;7.10;99.90;;;7.39;90.95;99510.47;4875640;28;24427;-65
2023/12/31 05:28:57;;;;;;;4.25;3.58;;;7.20;99.90;;;7.48;90.71;99502.78;4835561;28;24428;-65
2023/12/31 05:31:19;;;;;;;4.13;3.00;;;7.40;99.90;;;7.54;89.95;99497.13;4853888;28;24526;-64
2023/12/31 05:33:41;;;;;;;3.95;3.30;;;7.40;99.90;;;7.56;89.08;99495.22;4875105;28;24486;-65
2023/12/31 05:36:04;;;;;;;3.50;3.20;;;7.50;99.90;;;7.64;88.37;99492.88;4868467;28;24926;-65
2023/12/31 05:38:26;;;;;;;2.50;2.30;;;7.50;99.90;;;7.69;88.41;99484.72;4863589;28;24474;-66
2023/12/31 05:40:48;;;;;;;8.40;3.67;;;7.60;99.90;;;7.76;87.50;99491.91;4862073;28;24463;-65
2023/12/31 05:43:11;;;;;;;9.07;6.10;;;7.70;99.90;;;7.78;87.30;99487.44;4859444;28;24470;-65
2023/12/31 05:45:33;;;;;;;3.80;3.50;;;7.70;99.90;;;7.80;87.03;99493.31;4876862;28;24434;-65
2023/12/31 05:47:55;;;;;;;4.55;3.85;;;7.70;99.90;;;7.80;88.12;99490.72;4873530;28;24870;-64
2023/12/31 05:50:17;;;;;;;4.47;3.30;;;7.70;99.90;;;7.82;87.97;99485.41;4874316;28;24443;-65
2023/12/31 05:52:40;;;;;;;3.95;3.50;;;7.80;99.90;;;7.82;87.71;99481.03;4855964;28;25000;-64
2023/12/31 05:55:02;;;;;;;3.67;3.28;;;7.80;99.90;;;7.80;87.03;99482.94;4875589;28;24434;-64
2023/12/31 05:57:24;;;;;;;3.53;3.22;;;7.80;99.90;;;7.74;88.05;99478.22;4865938;28;24514;-64
2023/12/31 05:59:46;;;;;;;4.80;3.30;;;7.70;99.90;;;7.63;87.97;99480.84;4857036;28;24619;-64
2023/12/31 06:02:08;;;;;;;3.70;3.40;;;7.60;99.90;;;7.52;89.08;99478.25;4870902;28;24446;-64
2023/12/31 06:04:30;;;;;;;4.03;3.40;;;7.60;99.90;;;7.49;89.55;99478.50;4866818;28;25055;-64
2023/12/31 06:06:52;;;;;;;3.30;3.00;;;7.50;99.90;;;7.42;89.89;99489.44;4869803;28;24446;-64
2023/12/31 06:09:14;;;;;;;3.10;2.78;;;7.40;99.90;;;7.39;89.33;99479.31;4864711;28;24444;-62
2023/12/31 06:11:36;;;;;;;3.17;2.87;;;7.40;99.90;;;7.44;90.19;99479.78;4862993;28;24512;-64
2023/12/31 06:13:58;;;;;;;3.30;3.00;;;7.40;99.90;;;7.39;89.64;99482.72;4852307;28;24486;-64
2023/12/31 06:16:20;;;;;;;2.80;2.60;;;7.40;99.90;;;7.30;90.35;99482.63;4875565;28;24489;-64
2023/12/31 06:18:42;;;;;;;2.80;2.50;;;7.30;99.90;;;7.39;89.60;99500.88;4867463;28;24546;-64
2023/12/31 06:21:04;;;;;;;3.03;2.78;;;7.30;99.90;;;7.40;90.22;99493.94;4855296;28;24432;-64
2023/12/31 06:23:26;;;;;;;4.18;2.75;;;7.40;99.90;;;7.38;90.07;99494.06;4858545;28;24559;-64
2023/12/31 06:25:48;;;;;;;3.28;2.78;;;7.40;99.90;;;7.40;90.18;99497.38;4866778;28;24485;-65
2023/12/31 06:28:11;;;;;;;3.13;2.50;;;7.40;99.90;;;7.48;89.34;99500.19;4855045;28;24790;-65
2023/12/31 06:30:34;;;;;;;2.92;2.60;;;7.40;99.90;;;7.49;88.59;99494.06;4866970;28;24462;-63
2023/12/31 06:32:56;;;;;;;3.17;2.40;;;7.40;99.90;;;7.56;89.34;99505.59;4874318;28;24428;-65
2023/12/31 06:35:18;;;;;;;2.50;2.30;;;7.50;99.90;;;7.64;88.02;99507.63;4865608;28;25019;-64
2023/12/31 06:37:40;;;;;;;4.30;2.58;;;7.60;99.90;;;7.72;88.35;99500.06;4850392;28;24526;-65
2023/12/31 06:40:03;;;;;;;3.45;2.60;;;7.60;99.90;;;7.72;87.50;99503.50;4858601;28;24490;-65
2023/12/31 06:42:25;;;;;;;2.60;2.40;;;7.70;99.90;;;7.83;88.04;99487.06;4854735;28;24432;-65
2023/12/31 06:44:47;;;;;;;2.42;2.33;;;7.70;99.90;;;7.83;87.86;99489.66;4869085;28;24959;-65
2023/12/31 06:47:08;;;;;;;2.53;2.33;;;7.70;99.90;;;7.84;86.70;99489.53;4874921;28;24606;-65
2023/12/31 06:49:30;;;;;;;4.25;2.80;;;7.80;99.90;;;7.91;86.89;99489.06;4870052;28;24605;-65
2023/12/31 06:51:52;;;;;;;2.75;2.58;;;7.80;99.90;;;7.94;87.08;99491.41;4871428;28;24439;-64
2023/12/31 06:54:14;;;;;;;2.80;2.60;;;7.80;99.90;;;7.88;87.32;99486.72;4860152;28;25068;-64
2023/12/31 06:56:36;;;;;;;2.92;2.67;;;7.80;99.90;;;7.85;86.73;99490.38;4858409;28;24447;-65
2023/12/31 06:58:58;;;;;;;2.88;2.67;;;7.80;99.90;;;7.91;87.35;99473.47;4866040;28;20762;-65
2023/12/31 07:01:20;;;;;;;3.55;2.63;;;7.80;99.90;;;7.99;86.73;99471.91;4846234;28;24428;-64
2023/12/31 07:03:43;;;;;;;2.72;2.53;;;7.90;99.90;;;8.05;86.55;99473.22;4872917;28;24554;-64
2023/12/31 07:06:07;;;;;;;2.90;2.60;;;7.90;99.90;;;8.06;86.29;99467.06;4872153;28;24450;-64
2023/12/31 07:08:29;;;;;;;2.40;2.20;;;8.00;99.90;;;7.98;85.79;99469.44;4847361;28;24444;-63
2023/12/31 07:10:52;;;;;;;2.83;2.60;;;7.90;99.90;;;7.94;87.04;99468.88;4854592;28;25192;-64
2023/12/31 07:13:14;;;;;;;2.70;2.50;;;7.90;99.90;;;7.97;86.39;99462.59;4863930;28;24451;-62
2023/12/31 07:15:36;;;;;;;3.08;1.95;;;7.90;99.90;;;7.97;86.55;99460.00;4854734;28;24470;-65
2023/12/31 07:17:58;;;;;;;2.60;2.40;;;8.00;99.90;;;8.04;86.34;99442.97;4871472;28;24646;-64
2023/12/31 07:20:20;;;;;;;2.40;2.20;;;8.00;99.90;;;8.04;86.23;99440.38;4872369;28;24447;-63
2023/12/31 07:22:42;;;;;;;3.92;2.40;;;8.00;99.90;;;8.07;86.05;99443.56;4873327;28;24467;-64
2023/12/31 07:25:05;;;;;;;3.53;2.40;;;8.00;99.90;;;8.04;86.70;99437.78;4847986;28;24475;-64
2023/12/31 07:27:29;;;;;;;2.10;2.00;;;8.00;99.90;;;8.06;86.54;99438.50;4839295;28;24517;-64
2023/12/31 07:29:51;;;;;;;2.47;2.20;;;8.00;99.90;;;8.02;86.61;99440.50;4847550;28;20837;-66
2023/12/31 07:32:13;;;;;;;3.03;2.72;;;8.00;99.90;;;8.00;87.36;99436.38;4864772;28;24420;-66
2023/12/31 07:34:35;;;;;;;2.40;2.20;;;8.00;99.90;;;7.96;87.14;99437.59;4839999;28;24639;-63
2023/12/31 07:36:57;;;;;;;2.47;2.00;;;7.90;99.90;;;7.96;87.33;99442.78;4859439;28;24427;-64
2023/12/31 07:39:19;;;;;;;2.60;2.40;;;7.90;99.90;;;7.95;87.15;99422.94;4862049;28;24536;-63
2023/12/31 07:41:40;;;;;;;3.08;1.52;;;7.90;99.90;;;8.00;87.58;99420.81;4864106;28;24543;-66
2023/12/31 07:44:03;;;;;;;2.72;2.10;;;7.90;99.90;;;8.04;87.01;99424.81;4866351;28;24468;-66
2023/12/31 07:46:25;;;;;;;2.90;2.70;;;7.90;99.90;;;8.06;86.96;99431.53;4859504;28;24455;-66
2023/12/31 07:48:47;;;;;;;3.00;2.30;;;8.00;99.90;;;7.98;87.44;99435.69;4844431;28;24523;-66
2023/12/31 07:51:09;;;;;;;2.70;2.50;;;7.90;99.90;;;8.03;87.12;99425.75;4865109;28;25063;-64
2023/12/31 07:53:31;;;;;;;2.60;2.40;;;8.00;99.90;;;8.10;87.35;99413.91;4863188;28;25084;-63
2023/12/31 07:55:54;;;;;;;3.20;2.40;;;8.00;99.90;;;8.07;86.88;99414.16;4859518;28;24514;-66
2023/12/31 07:58:16;;;;;;;2.38;2.00;;;8.00;99.90;;;8.10;86.64;99421.69;4836264;28;25059;-64
2023/12/31 08:00:38;;;;;;;3.20;2.70;;;8.00;99.90;;;8.09;87.00;99418.28;4873669;28;24430;-65
2023/12/31 08:03:00;;;;;;;2.60;2.38;;;8.00;99.90;;;8.16;86.92;99421.19;4856138;28;24516;-64
2023/12/31 08:05:22;;;;;;;4.25;2.22;;;8.10;99.90;;;8.16;86.87;99416.84;4868222;28;24451;-64
2023/12/31 08:07:44;;;;;;;3.47;2.67;;;8.10;99.90;;;8.17;86.31;99418.50;4866084;28;24573;-64
2023/12/31 08:10:07;;;;;;;2.28;2.17;;;8.10;99.90;;;8.25;86.20;99407.47;4866328;28;24527;-66
2023/12/31 08:12:29;;;;;;;3.97;3.20;;;8.10;99.90;;;8.24;86.02;99403.25;4865176;28;24428;-65
2023/12/31 08:14:51;;;;;;;4.18;3.30;;;8.20;99.90;;;8.31;86.12;99407.81;4854857;28;24436;-65
2023/12/31 08:17:13;;;;;;;4.80;3.60;;;8.20;99.90;;;8.41;85.22;99394.91;4854068;28;24442;-65
2023/12/31 08:19:35;;;;;;;3.00;2.80;;;8.30;99.90;;;8.41;84.90;99402.72;4859863;28;24517;-65
2023/12/31 08:21:57;;;;;;;2.90;2.70;;;8.30;99.90;;;8.43;84.78;99396.41;4863471;28;24489;-65
2023/12/31 08:24:21;;;;;;;2.60;2.17;;;8.40;99.90;;;8.37;85.39;99399.53;4868350;28;24490;-65
2023/12/31 08:26:43;;;;;;;1.98;1.77;;;8.30;99.90;;;8.43;85.74;99393.81;4854447;28;24515;-65
2023/12/31 08:29:05;;;;;;;2.47;2.13;;;8.30;99.90;;;8.47;84.81;99394.41;4851852;28;25058;-65
2023/12/31 08:31:27;;;;;;;2.30;2.10;;;8.40;99.90;;;8.55;84.57;99397.19;4853771;28;24493;-65
2023/12/31 08:33:49;;;;;;;2.90;1.77;;;8.40;99.90;;;8.64;84.29;99390.41;4854679;28;25019;-65
2023/12/31 08:36:11;;;;;;;4.22;2.50;;;8.50;99.90;;;8.69;84.38;99401.25;4866288;28;25010;-65
2023/12/31 08:38:33;;;;;;;2.22;2.03;;;8.50;99.90;;;8.68;84.28;99418.63;4861749;28;25508;-65
2023/12/31 08:40:55;;;;;;;2.25;2.05;;;8.60;99.90;;;8.65;83.92;99408.47;4855501;28;24435;-65
2023/12/31 08:43:18;;;;;;;2.60;2.40;;;8.60;99.90;;;8.60;84.03;99387.25;4870427;28;24473;-64
2023/12/31 08:45:40;;;;;;;3.28;2.35;;;8.50;99.90;;;8.62;84.58;99392.31;4855312;28;21149;-65
2023/12/31 08:48:03;;;;;;;3.58;2.90;;;8.50;99.90;;;8.57;84.87;99382.28;4871584;28;24537;-64
2023/12/31 08:50:25;;;;;;;2.95;2.53;;;8.50;99.90;;;8.58;84.74;99382.16;4861617;28;24451;-65
2023/12/31 08:52:47;;;;;;;3.58;2.80;;;8.50;99.90;;;8.54;85.09;99382.53;4869496;28;24510;-66
2023/12/31 08:55:10;;;;;;;2.67;2.35;;;8.50;99.90;;;8.52;84.73;99377.47;4870225;28;24837;-65
2023/12/31 08:57:32;;;;;;;2.80;2.30;;;8.50;99.90;;;8.50;85.22;99374.16;4872603;28;24431;-65
2023/12/31 08:59:54;;;;;;;2.40;2.10;;;8.50;99.90;;;8.61;84.92;99375.88;4864551;28;24535;-65
2023/12/31 09:02:16;;;;;;;3.53;2.63;;;8.50;99.90;;;8.64;85.00;99378.25;4857545;28;24455;-63
2023/12/31 09:04:38;;;;;;;4.40;3.10;;;8.50;99.90;;;8.69;84.58;99380.44;4856044;28;24467;-64
2023/12/31 09:07:01;;;;;;;2.40;2.20;;;8.60;99.90;;;8.61;84.52;99381.06;4856063;28;24436;-65
2023/12/31 09:09:23;;;;;;;3.20;2.08;;;8.60;99.90;;;8.60;84.67;99374.25;4852677;28;25020;-64
2023/12/31 09:11:45;;;;;;;3.20;2.90;;;8.50;99.90;;;8.55;84.77;99379.81;4859544;28;24523;-65
2023/12/31 09:14:07;;;;;;;2.50;2.05;;;8.50;99.90;;;8.49;84.91;99377.75;4857796;28;24465;-65
2023/12/31 09:16:29;;;;;;;3.50;2.83;;;8.50;99.90;;;8.56;84.68;99384.06;4865389;28;24904;-64
2023/12/31 09:18:51;;;;;;;3.10;2.50;;;8.50;99.90;;;8.57;84.22;99384.88;4858000;28;24455;-65
2023/12/31 09:21:13;;;;;;;2.97;2.78;;;8.50;99.90;;;8.61;84.73;99368.06;4875289;28;24443;-65
2023/12/31 09:23:35;;;;;;;3.00;2.80;;;8.50;99.90;;;8.59;86.03;99367.38;4864426;28;24543;-64
2023/12/31 09:25:57;;;;;;;3.20;2.28;;;8.50;99.90;;;8.52;86.68;99364.47;4870533;28;24436;-68
2023/12/31 09:28:19;;;;;;;2.92;2.63;;;8.50;99.90;;;8.55;86.58;99361.63;4858406;28;24434;-65
2023/12/31 09:30:41;;;;;;;2.95;2.75;;;8.50;99.90;;;8.53;86.79;99363.53;4863878;28;24485;-66
2023/12/31 09:33:03;;;;;;;1.52;1.42;;;8.50;99.90;;;8.54;86.65;99359.13;4867308;28;24565;-65
2023/12/31 09:35:25;;;;;;;3.95;3.10;;;8.50;99.90;;;8.58;86.65;99370.94;4865451;28;24442;-65
2023/12/31 09:37:47;;;;;;;4.15;3.40;;;8.50;99.90;;;8.55;86.86;99371.19;4870202;28;24508;-65
2023/12/31 09:40:11;;;;;;;3.23;2.90;;;8.50;99.90;;;8.54;86.98;99375.56;4871882;28;24449;-65
2023/12/31 09:42:49;;;;;;;3.20;2.90;;;8.50;99.90;;;8.56;86.64;99381.47;4857473;28;24519;-65
2023/12/31 09:45:14;;;;;;;4.50;3.20;;;8.50;99.90;;;8.65;86.59;99372.06;4856316;28;24498;-62
2023/12/31 09:47:36;;;;;;;3.33;2.70;;;8.50;99.90;;;8.63;86.37;99363.56;4847472;28;24442;-65
2023/12/31 09:50:00;;;;;;;4.25;3.50;;;8.60;99.90;;;8.67;86.15;99364.16;4846389;28;24443;-65
2023/12/31 09:52:23;;;;;;;3.30;3.00;;;8.60;99.90;;;8.63;86.43;99362.75;4837865;28;24439;-66
2023/12/31 09:54:45;;;;;;;3.60;3.25;;;8.50;99.90;;;8.67;86.13;99362.34;4842778;28;25028;-65
2023/12/31 09:57:09;;;;;;;2.88;2.60;;;8.60;99.90;;;8.70;85.81;99361.28;4838655;28;20844;-66
2023/12/31 09:59:36;;;;;;;3.58;3.00;;;8.60;99.90;;;8.71;86.08;99355.94;4857317;28;24470;-65
2023/12/31 10:02:05;;;;;;;2.72;2.50;;;8.60;99.90;;;8.79;85.35;99344.91;4835886;28;24468;-63
2023/12/31 10:04:27;;;;;;;3.10;2.80;;;8.70;99.90;;;8.82;85.19;99342.03;4871046;28;24887;-65
2023/12/31 10:06:50;;;;;;;3.70;2.70;;;8.70;99.90;;;8.90;84.48;99335.22;4862690;28;24973;-65
2023/12/31 10:09:19;;;;;;;2.80;2.35;;;8.80;99.90;;;8.88;84.68;99338.94;4868473;28;24489;-65
2023/12/31 10:11:41;;;;;;;3.72;2.40;;;8.80;99.90;;;8.93;84.48;99334.16;4845235;28;24864;-65